Folksworth 15 2019
20/01/2019

     

Page 1 of 9 (433 items)
PosRace NoNameTimeNet TimeCategoryCat PosBehindGenderGen PosClubPos In TeamLocal Lady V60Frostbite ClubPace
1242David Hudson 01:19:54.801:19:54.1M Sen1Male1BRJ Run and Tri1Y 11.3 m/hr
2409Mark Sands01:24:06.301:24:04.5MV451Male2Skegness & District Running Club1 10.7 m/hr
385Michael Channing01:24:54.401:24:53.6M Sen200:04:59.6Male3Helpston Harriers AC1 10.6 m/hr
4301Phil Martin01:26:22.601:26:22.1M Sen300:06:27.8Male4Peterborough AC1 10.4 m/hr
5159Ty Farrer01:27:09.901:27:08.5MV45200:03:03.5Male5Huntingdonshire AC1Y 10.3 m/hr
6290Paul Lunn01:27:15.201:27:14.6MV45300:03:08.8Male6Helpston Harriers AC2 10.3 m/hr
7200Ian Hammett01:29:03.401:29:02.0MV401Male7Bedford Harriers1 10.1 m/hr
859Kirk Brawn01:29:07.101:29:06.0MV40200:00:03.6Male8Peterborough AC2 10.1 m/hr
9357Nick Osborn01:29:16.201:29:14.1M Sen400:09:21.4Male9Huntingdonshire AC2Y 10.1 m/hr
10180Martin Gichuhi 01:30:51.901:30:50.3M Sen500:10:57.1Male10Bushfield Joggers1Y 9.9 m/hr
11375Mark Popple01:31:24.601:31:23.5M Sen600:11:29.8Male11Stamford Striders1 9.8 m/hr
12510Danny Winn01:31:24.801:31:23.5M Sen700:11:30.0Male12Bedford Harriers2 9.8 m/hr
13162Simon Fell01:32:08.601:32:08.1MV40300:03:05.2Male13Peterborough AC3 9.8 m/hr
14314Rod McKee01:32:24.401:32:22.7MV45400:08:18.1Male14Huntingdonshire AC3Y 9.7 m/hr
15338Jim Morris01:32:31.801:32:30.9MV501Male15Helpston Harriers AC3 9.7 m/hr
16361Jonathan Palmer01:33:01.301:32:58.2M Sen800:13:06.5Male16Bourne Town Harriers1Y 9.7 m/hr
17282Chris Limmer01:33:24.401:33:21.0M Sen900:13:29.6Male17Grantham Running Club1 9.6 m/hr
1865Simon Brown01:33:41.501:33:39.0M Sen1000:13:46.7Male18London City Athletics Club1 9.6 m/hr
19289Jeff Lucas01:34:49.301:34:46.7MV40400:05:45.9Male19Werrington Joggers1Y 9.5 m/hr
20480Neil Tween01:35:16.601:35:13.1M Sen1100:15:21.8Male20Cambridge & Coleridge AC1Y 9.4 m/hr
21169Jordan Foster01:35:44.901:35:44.0F Sen1Female1Nene Valley Harriers1Y 9.4 m/hr
22123Damian Davies 01:36:09.801:36:07.5MV45500:12:03.4Male21Notfast RC1 9.4 m/hr
23428Andrew Shields01:36:38.401:36:36.6MV50200:04:06.6Male22Cambridge & Coleridge AC2Y 9.3 m/hr
24298Lisa Marriot01:36:58.201:36:54.8FV401Female2Ramsey Road Runners1Y 9.3 m/hr
268Mark Alderson01:37:32.401:37:20.3MV40600:08:28.9Male24Stamford Striders2 9.2 m/hr
25418Piers Serjeant01:37:26.701:37:23.7MV40500:08:23.3Male23St Neots Riverside Runners1Y 9.2 m/hr
27216Jonathan Haynes01:38:23.901:38:19.6MV601Male25Bishops Stortford RC1 9.1 m/hr
28359Steve Owen01:38:31.401:38:28.9MV45600:14:25.1Male26Wymeswold RC1 9.1 m/hr
2979Miguel Cann01:38:36.601:38:33.7MV50300:06:04.7Male27 9.1 m/hr
30198Steve Hall01:38:38.801:38:37.9MV45700:14:32.4Male28Peterborough AC4 9.1 m/hr
317Toni Alcaraz01:38:58.901:38:55.7FV40200:02:00.6Female3March Ac1Y 9.1 m/hr
3292Joe Clarke01:39:29.801:39:25.9M Sen1200:19:35.0Male29Grantham Running Club2 9.0 m/hr
33435Zoe Smith01:40:32.201:40:21.8FV351Female4Rutland Running & Triathlon Club1 9.0 m/hr
3410Ryan Anderson01:40:58.801:40:55.0M Sen1300:21:04.0Male30Sawtry Walk to Run1 8.9 m/hr
35367Andrew Pask01:41:02.601:40:58.9M Sen1400:21:07.8Male31Grantham Running Club3 8.9 m/hr
36213Carolyn Hay01:41:09.501:41:05.6FV451Female5Redhill Road Runners1 8.9 m/hr
37372Mark Pereira01:41:20.501:41:12.6M Sen1500:21:25.7Male32Bushfield Joggers2Y 8.9 m/hr
38239Stephen Howard01:41:28.701:41:20.9MV551Male33Ely Runners1Y 8.9 m/hr
39107Giles Cooper01:41:39.601:41:29.7MV50400:09:07.8Male34Peterborough AC5 8.9 m/hr
40255Tony Johnson01:41:51.501:41:45.2MV50500:09:19.6Male35Grantham Running Club4 8.8 m/hr
41507Daniel Wilson01:42:06.701:42:01.2M Sen1600:22:11.9Male36 8.8 m/hr
42100Andy Cole01:42:10.501:42:07.6MV50600:09:38.7Male37March Ac1Y 8.8 m/hr
43516Robin Wright01:42:15.401:42:13.4M Sen1700:22:20.6Male38March Ac2Y 8.8 m/hr
44284Scott Lloyd01:42:28.301:42:20.8MV40700:13:24.8Male39Pactrac1Y 8.8 m/hr
4530Paul Baxter 01:42:30.101:42:28.1MV55200:01:01.4Male40Bushfield Joggers3Y 8.8 m/hr
46247Neil Jarvis01:42:40.901:42:34.1MV45800:18:34.5Male41BRJ Run and Tri2Y 8.8 m/hr
47110Tony Cormano 01:42:42.401:42:40.8M Sen1800:22:47.6Male42Bedford Harriers3 8.8 m/hr
48146Mark Edwards 01:42:55.901:42:49.4MV45900:18:49.6Male43Grantham Running Club5 8.7 m/hr
49497David Whitwell01:43:07.101:43:01.3M Sen1900:23:12.3Male44Yaxley Runners & Joggers1Y 8.7 m/hr
50443Mick Stacey01:43:23.801:43:20.7MV55300:01:55.1Male45March Ac3Y 8.7 m/hr
Page 1 of 9 (433 items)